sensor_id;sensor_type;location;lat;lon;timestamp;P1;durP1;ratioP1;P2;durP2;ratioP2
33792;SDS011;20105;48.764;9.178;2022-07-19T00:00:16;2.83;;;2.30;;
33792;SDS011;20105;48.764;9.178;2022-07-19T00:02:42;3.20;;;2.90;;
33792;SDS011;20105;48.764;9.178;2022-07-19T00:05:08;4.57;;;2.47;;
33792;SDS011;20105;48.764;9.178;2022-07-19T00:07:35;2.87;;;2.63;;
33792;SDS011;20105;48.764;9.178;2022-07-19T00:10:01;2.43;;;2.23;;
33792;SDS011;20105;48.764;9.178;2022-07-19T00:12:28;3.57;;;2.50;;
33792;SDS011;20105;48.764;9.178;2022-07-19T00:14:54;2.77;;;2.50;;
33792;SDS011;20105;48.764;9.178;2022-07-19T00:17:20;4.90;;;3.53;;
33792;SDS011;20105;48.764;9.178;2022-07-19T00:19:45;2.60;;;2.40;;
33792;SDS011;20105;48.764;9.178;2022-07-19T00:22:11;4.97;;;2.63;;
33792;SDS011;20105;48.764;9.178;2022-07-19T00:24:36;4.17;;;2.50;;
33792;SDS011;20105;48.764;9.178;2022-07-19T00:27:02;4.90;;;2.70;;
33792;SDS011;20105;48.764;9.178;2022-07-19T00:29:28;3.70;;;2.70;;
33792;SDS011;20105;48.764;9.178;2022-07-19T00:31:54;3.63;;;3.33;;
33792;SDS011;20105;48.764;9.178;2022-07-19T00:34:19;4.63;;;2.60;;
33792;SDS011;20105;48.764;9.178;2022-07-19T00:36:45;4.10;;;3.13;;
33792;SDS011;20105;48.764;9.178;2022-07-19T00:39:10;3.20;;;2.70;;
33792;SDS011;20105;48.764;9.178;2022-07-19T00:41:40;5.23;;;3.27;;
33792;SDS011;20105;48.764;9.178;2022-07-19T00:44:07;3.17;;;2.97;;
33792;SDS011;20105;48.764;9.178;2022-07-19T00:46:34;4.20;;;2.93;;
33792;SDS011;20105;48.764;9.178;2022-07-19T00:49:01;2.83;;;2.60;;
33792;SDS011;20105;48.764;9.178;2022-07-19T00:51:27;2.73;;;2.53;;
33792;SDS011;20105;48.764;9.178;2022-07-19T00:53:53;2.70;;;2.50;;
33792;SDS011;20105;48.764;9.178;2022-07-19T00:56:20;3.57;;;2.80;;
33792;SDS011;20105;48.764;9.178;2022-07-19T00:58:47;3.80;;;2.70;;
33792;SDS011;20105;48.764;9.178;2022-07-19T01:01:14;4.63;;;2.53;;
33792;SDS011;20105;48.764;9.178;2022-07-19T01:03:40;3.00;;;2.73;;
33792;SDS011;20105;48.764;9.178;2022-07-19T01:06:06;3.20;;;3.00;;
33792;SDS011;20105;48.764;9.178;2022-07-19T01:08:34;4.07;;;3.67;;
33792;SDS011;20105;48.764;9.178;2022-07-19T01:11:02;3.33;;;3.03;;
33792;SDS011;20105;48.764;9.178;2022-07-19T01:13:29;3.37;;;3.00;;
33792;SDS011;20105;48.764;9.178;2022-07-19T01:15:55;6.50;;;3.30;;
33792;SDS011;20105;48.764;9.178;2022-07-19T01:18:20;3.10;;;2.90;;
33792;SDS011;20105;48.764;9.178;2022-07-19T01:20:46;2.80;;;2.60;;
33792;SDS011;20105;48.764;9.178;2022-07-19T01:23:12;4.17;;;3.00;;
33792;SDS011;20105;48.764;9.178;2022-07-19T01:25:37;4.67;;;3.30;;
33792;SDS011;20105;48.764;9.178;2022-07-19T01:28:04;3.53;;;3.23;;
33792;SDS011;20105;48.764;9.178;2022-07-19T01:30:31;3.67;;;2.80;;
33792;SDS011;20105;48.764;9.178;2022-07-19T01:32:57;3.00;;;2.70;;
33792;SDS011;20105;48.764;9.178;2022-07-19T01:35:23;5.10;;;2.67;;
33792;SDS011;20105;48.764;9.178;2022-07-19T01:37:49;2.80;;;2.57;;
33792;SDS011;20105;48.764;9.178;2022-07-19T01:40:15;3.83;;;2.60;;
33792;SDS011;20105;48.764;9.178;2022-07-19T01:42:43;2.53;;;2.33;;
33792;SDS011;20105;48.764;9.178;2022-07-19T01:45:09;3.00;;;2.80;;
33792;SDS011;20105;48.764;9.178;2022-07-19T01:47:36;3.13;;;2.67;;
33792;SDS011;20105;48.764;9.178;2022-07-19T01:50:02;3.20;;;2.87;;
33792;SDS011;20105;48.764;9.178;2022-07-19T01:52:30;5.70;;;2.90;;
33792;SDS011;20105;48.764;9.178;2022-07-19T01:54:56;2.83;;;2.63;;
33792;SDS011;20105;48.764;9.178;2022-07-19T01:57:21;5.47;;;2.97;;
33792;SDS011;20105;48.764;9.178;2022-07-19T01:59:47;6.93;;;3.07;;
33792;SDS011;20105;48.764;9.178;2022-07-19T02:02:14;3.03;;;2.40;;
33792;SDS011;20105;48.764;9.178;2022-07-19T02:04:39;3.63;;;2.73;;
33792;SDS011;20105;48.764;9.178;2022-07-19T02:07:05;3.17;;;2.93;;
33792;SDS011;20105;48.764;9.178;2022-07-19T02:09:31;3.77;;;2.87;;
33792;SDS011;20105;48.764;9.178;2022-07-19T02:11:56;3.90;;;3.20;;
33792;SDS011;20105;48.764;9.178;2022-07-19T02:14:22;4.53;;;3.07;;
33792;SDS011;20105;48.764;9.178;2022-07-19T02:16:47;3.43;;;3.03;;
33792;SDS011;20105;48.764;9.178;2022-07-19T02:19:13;3.43;;;3.13;;
33792;SDS011;20105;48.764;9.178;2022-07-19T02:21:39;4.30;;;3.20;;
33792;SDS011;20105;48.764;9.178;2022-07-19T02:24:05;3.70;;;2.83;;
33792;SDS011;20105;48.764;9.178;2022-07-19T02:26:33;3.60;;;2.80;;
33792;SDS011;20105;48.764;9.178;2022-07-19T02:28:59;4.20;;;2.63;;
33792;SDS011;20105;48.764;9.178;2022-07-19T02:31:25;3.80;;;3.10;;
33792;SDS011;20105;48.764;9.178;2022-07-19T02:33:50;4.93;;;3.40;;
33792;SDS011;20105;48.764;9.178;2022-07-19T02:36:16;3.80;;;3.37;;
33792;SDS011;20105;48.764;9.178;2022-07-19T02:38:42;3.30;;;2.67;;
33792;SDS011;20105;48.764;9.178;2022-07-19T02:41:08;4.30;;;2.80;;
33792;SDS011;20105;48.764;9.178;2022-07-19T02:43:34;3.13;;;2.70;;
33792;SDS011;20105;48.764;9.178;2022-07-19T02:45:59;4.43;;;2.73;;
33792;SDS011;20105;48.764;9.178;2022-07-19T02:48:25;3.17;;;2.80;;
33792;SDS011;20105;48.764;9.178;2022-07-19T02:50:51;2.60;;;2.40;;
33792;SDS011;20105;48.764;9.178;2022-07-19T02:53:16;3.00;;;2.80;;
33792;SDS011;20105;48.764;9.178;2022-07-19T02:55:42;2.73;;;2.53;;
33792;SDS011;20105;48.764;9.178;2022-07-19T02:58:08;2.80;;;2.60;;
33792;SDS011;20105;48.764;9.178;2022-07-19T03:00:33;2.50;;;2.30;;
33792;SDS011;20105;48.764;9.178;2022-07-19T03:02:59;3.00;;;2.53;;
33792;SDS011;20105;48.764;9.178;2022-07-19T03:05:48;2.83;;;2.63;;
33792;SDS011;20105;48.764;9.178;2022-07-19T03:08:15;3.20;;;2.70;;
33792;SDS011;20105;48.764;9.178;2022-07-19T03:10:41;4.57;;;2.70;;
33792;SDS011;20105;48.764;9.178;2022-07-19T03:13:06;3.70;;;2.63;;
33792;SDS011;20105;48.764;9.178;2022-07-19T03:15:33;2.70;;;2.50;;
33792;SDS011;20105;48.764;9.178;2022-07-19T03:17:59;3.43;;;3.23;;
33792;SDS011;20105;48.764;9.178;2022-07-19T03:20:25;2.50;;;2.17;;
33792;SDS011;20105;48.764;9.178;2022-07-19T03:22:51;2.47;;;2.37;;
33792;SDS011;20105;48.764;9.178;2022-07-19T03:25:16;3.90;;;2.93;;
33792;SDS011;20105;48.764;9.178;2022-07-19T03:27:42;3.50;;;2.83;;
33792;SDS011;20105;48.764;9.178;2022-07-19T03:30:08;3.40;;;3.10;;
33792;SDS011;20105;48.764;9.178;2022-07-19T03:32:34;3.20;;;2.90;;
33792;SDS011;20105;48.764;9.178;2022-07-19T03:34:59;3.10;;;2.90;;
33792;SDS011;20105;48.764;9.178;2022-07-19T03:37:25;3.70;;;3.40;;
33792;SDS011;20105;48.764;9.178;2022-07-19T03:39:50;7.23;;;2.50;;
33792;SDS011;20105;48.764;9.178;2022-07-19T03:42:16;3.17;;;2.20;;
33792;SDS011;20105;48.764;9.178;2022-07-19T03:44:41;6.00;;;3.27;;
33792;SDS011;20105;48.764;9.178;2022-07-19T03:47:07;7.83;;;2.73;;
33792;SDS011;20105;48.764;9.178;2022-07-19T03:49:32;2.93;;;2.73;;
33792;SDS011;20105;48.764;9.178;2022-07-19T03:51:58;4.20;;;3.20;;
33792;SDS011;20105;48.764;9.178;2022-07-19T03:54:24;2.73;;;2.53;;
33792;SDS011;20105;48.764;9.178;2022-07-19T03:56:49;3.80;;;2.77;;
33792;SDS011;20105;48.764;9.178;2022-07-19T03:59:15;5.40;;;2.73;;
33792;SDS011;20105;48.764;9.178;2022-07-19T04:01:41;5.10;;;2.43;;
33792;SDS011;20105;48.764;9.178;2022-07-19T04:04:06;3.70;;;2.37;;
33792;SDS011;20105;48.764;9.178;2022-07-19T04:06:32;3.53;;;2.90;;
33792;SDS011;20105;48.764;9.178;2022-07-19T04:08:58;4.73;;;3.93;;
33792;SDS011;20105;48.764;9.178;2022-07-19T04:11:24;5.77;;;2.80;;
33792;SDS011;20105;48.764;9.178;2022-07-19T04:13:49;3.33;;;3.03;;
33792;SDS011;20105;48.764;9.178;2022-07-19T04:16:15;3.90;;;2.77;;
33792;SDS011;20105;48.764;9.178;2022-07-19T04:18:41;7.53;;;3.27;;
33792;SDS011;20105;48.764;9.178;2022-07-19T04:21:06;4.60;;;2.90;;
33792;SDS011;20105;48.764;9.178;2022-07-19T04:23:33;4.57;;;3.33;;
33792;SDS011;20105;48.764;9.178;2022-07-19T04:25:58;6.80;;;2.70;;
33792;SDS011;20105;48.764;9.178;2022-07-19T04:28:24;5.70;;;3.30;;
33792;SDS011;20105;48.764;9.178;2022-07-19T04:30:50;15.57;;;3.57;;
33792;SDS011;20105;48.764;9.178;2022-07-19T04:33:16;3.13;;;2.83;;
33792;SDS011;20105;48.764;9.178;2022-07-19T04:35:45;4.43;;;3.87;;
33792;SDS011;20105;48.764;9.178;2022-07-19T04:38:11;5.80;;;2.90;;
33792;SDS011;20105;48.764;9.178;2022-07-19T04:40:37;5.87;;;3.70;;
33792;SDS011;20105;48.764;9.178;2022-07-19T04:43:04;5.33;;;3.30;;
33792;SDS011;20105;48.764;9.178;2022-07-19T04:45:29;4.20;;;3.33;;
33792;SDS011;20105;48.764;9.178;2022-07-19T04:47:55;6.60;;;3.43;;
33792;SDS011;20105;48.764;9.178;2022-07-19T04:50:21;3.77;;;3.40;;
33792;SDS011;20105;48.764;9.178;2022-07-19T04:52:46;5.20;;;2.80;;
33792;SDS011;20105;48.764;9.178;2022-07-19T04:55:12;4.30;;;3.00;;
33792;SDS011;20105;48.764;9.178;2022-07-19T04:57:38;3.20;;;2.67;;
33792;SDS011;20105;48.764;9.178;2022-07-19T05:00:04;3.20;;;2.90;;
33792;SDS011;20105;48.764;9.178;2022-07-19T05:02:32;6.63;;;3.43;;
33792;SDS011;20105;48.764;9.178;2022-07-19T05:04:57;5.00;;;3.40;;
33792;SDS011;20105;48.764;9.178;2022-07-19T05:07:23;7.53;;;3.87;;
33792;SDS011;20105;48.764;9.178;2022-07-19T05:09:48;3.60;;;3.00;;
33792;SDS011;20105;48.764;9.178;2022-07-19T05:12:14;6.17;;;3.87;;
33792;SDS011;20105;48.764;9.178;2022-07-19T05:14:40;3.37;;;2.80;;
33792;SDS011;20105;48.764;9.178;2022-07-19T05:17:06;3.47;;;3.03;;
33792;SDS011;20105;48.764;9.178;2022-07-19T05:19:31;3.93;;;3.40;;
33792;SDS011;20105;48.764;9.178;2022-07-19T05:21:57;9.80;;;2.60;;
33792;SDS011;20105;48.764;9.178;2022-07-19T05:24:22;6.40;;;2.63;;
33792;SDS011;20105;48.764;9.178;2022-07-19T05:26:48;2.63;;;2.40;;
33792;SDS011;20105;48.764;9.178;2022-07-19T05:29:13;3.07;;;2.80;;
33792;SDS011;20105;48.764;9.178;2022-07-19T05:31:39;7.30;;;3.23;;
33792;SDS011;20105;48.764;9.178;2022-07-19T05:34:04;5.83;;;3.77;;
33792;SDS011;20105;48.764;9.178;2022-07-19T05:36:30;3.47;;;3.17;;
33792;SDS011;20105;48.764;9.178;2022-07-19T05:38:56;3.80;;;3.00;;
33792;SDS011;20105;48.764;9.178;2022-07-19T05:41:21;6.53;;;3.40;;
33792;SDS011;20105;48.764;9.178;2022-07-19T05:43:47;6.23;;;4.90;;
33792;SDS011;20105;48.764;9.178;2022-07-19T05:46:13;5.50;;;3.40;;
33792;SDS011;20105;48.764;9.178;2022-07-19T05:48:39;5.97;;;4.10;;
33792;SDS011;20105;48.764;9.178;2022-07-19T05:51:04;10.17;;;4.63;;
33792;SDS011;20105;48.764;9.178;2022-07-19T05:53:30;10.10;;;3.60;;
33792;SDS011;20105;48.764;9.178;2022-07-19T05:55:56;7.70;;;3.00;;
33792;SDS011;20105;48.764;9.178;2022-07-19T05:58:22;4.50;;;3.13;;
33792;SDS011;20105;48.764;9.178;2022-07-19T06:00:49;4.50;;;3.40;;
33792;SDS011;20105;48.764;9.178;2022-07-19T06:03:33;3.80;;;3.40;;
33792;SDS011;20105;48.764;9.178;2022-07-19T06:05:59;4.23;;;3.93;;
33792;SDS011;20105;48.764;9.178;2022-07-19T06:08:24;3.93;;;3.00;;
33792;SDS011;20105;48.764;9.178;2022-07-19T06:10:50;2.83;;;2.20;;
33792;SDS011;20105;48.764;9.178;2022-07-19T06:13:16;6.23;;;3.33;;
33792;SDS011;20105;48.764;9.178;2022-07-19T06:15:41;4.20;;;3.80;;
33792;SDS011;20105;48.764;9.178;2022-07-19T06:18:07;3.83;;;2.60;;
33792;SDS011;20105;48.764;9.178;2022-07-19T06:20:33;5.60;;;3.60;;
33792;SDS011;20105;48.764;9.178;2022-07-19T06:22:59;3.27;;;2.90;;
33792;SDS011;20105;48.764;9.178;2022-07-19T06:25:24;4.30;;;2.73;;
33792;SDS011;20105;48.764;9.178;2022-07-19T06:27:50;5.03;;;3.13;;
33792;SDS011;20105;48.764;9.178;2022-07-19T06:30:15;5.53;;;3.47;;
33792;SDS011;20105;48.764;9.178;2022-07-19T06:32:41;5.03;;;3.17;;
33792;SDS011;20105;48.764;9.178;2022-07-19T06:35:07;3.20;;;2.90;;
33792;SDS011;20105;48.764;9.178;2022-07-19T06:37:32;3.70;;;3.20;;
33792;SDS011;20105;48.764;9.178;2022-07-19T06:39:58;3.20;;;2.90;;
33792;SDS011;20105;48.764;9.178;2022-07-19T06:42:24;4.03;;;3.27;;
33792;SDS011;20105;48.764;9.178;2022-07-19T06:44:50;13.37;;;3.57;;
33792;SDS011;20105;48.764;9.178;2022-07-19T06:47:15;3.27;;;2.97;;
33792;SDS011;20105;48.764;9.178;2022-07-19T06:49:44;5.90;;;3.60;;
33792;SDS011;20105;48.764;9.178;2022-07-19T06:52:09;5.57;;;3.53;;
33792;SDS011;20105;48.764;9.178;2022-07-19T06:54:35;2.40;;;2.20;;
33792;SDS011;20105;48.764;9.178;2022-07-19T06:57:00;5.33;;;3.03;;
33792;SDS011;20105;48.764;9.178;2022-07-19T06:59:26;7.50;;;3.00;;
33792;SDS011;20105;48.764;9.178;2022-07-19T07:01:52;3.03;;;2.80;;
33792;SDS011;20105;48.764;9.178;2022-07-19T07:04:18;3.40;;;3.17;;
33792;SDS011;20105;48.764;9.178;2022-07-19T07:06:43;3.83;;;3.03;;
33792;SDS011;20105;48.764;9.178;2022-07-19T07:09:09;5.73;;;3.50;;
33792;SDS011;20105;48.764;9.178;2022-07-19T07:11:35;5.60;;;2.57;;
33792;SDS011;20105;48.764;9.178;2022-07-19T07:14:00;5.33;;;3.53;;
33792;SDS011;20105;48.764;9.178;2022-07-19T07:16:26;7.20;;;3.77;;
33792;SDS011;20105;48.764;9.178;2022-07-19T07:18:51;4.20;;;3.30;;
33792;SDS011;20105;48.764;9.178;2022-07-19T07:21:17;7.50;;;3.50;;
33792;SDS011;20105;48.764;9.178;2022-07-19T07:23:43;7.17;;;3.77;;
33792;SDS011;20105;48.764;9.178;2022-07-19T07:26:08;7.00;;;4.50;;
33792;SDS011;20105;48.764;9.178;2022-07-19T07:28:35;8.13;;;4.20;;
33792;SDS011;20105;48.764;9.178;2022-07-19T07:31:01;4.03;;;3.60;;
33792;SDS011;20105;48.764;9.178;2022-07-19T07:33:26;6.90;;;3.83;;
33792;SDS011;20105;48.764;9.178;2022-07-19T07:35:52;5.40;;;4.97;;
33792;SDS011;20105;48.764;9.178;2022-07-19T07:38:17;7.67;;;4.07;;
33792;SDS011;20105;48.764;9.178;2022-07-19T07:40:43;7.30;;;4.80;;
33792;SDS011;20105;48.764;9.178;2022-07-19T07:43:08;9.10;;;4.27;;
33792;SDS011;20105;48.764;9.178;2022-07-19T07:45:34;5.37;;;4.57;;
33792;SDS011;20105;48.764;9.178;2022-07-19T07:48:01;7.20;;;4.20;;
33792;SDS011;20105;48.764;9.178;2022-07-19T07:50:26;6.43;;;4.70;;
33792;SDS011;20105;48.764;9.178;2022-07-19T07:52:53;9.63;;;4.53;;
33792;SDS011;20105;48.764;9.178;2022-07-19T07:55:18;6.30;;;4.33;;
33792;SDS011;20105;48.764;9.178;2022-07-19T07:57:45;6.10;;;4.33;;
33792;SDS011;20105;48.764;9.178;2022-07-19T08:00:10;4.40;;;3.23;;
33792;SDS011;20105;48.764;9.178;2022-07-19T08:02:39;3.70;;;3.13;;
33792;SDS011;20105;48.764;9.178;2022-07-19T08:05:06;2.77;;;2.50;;
33792;SDS011;20105;48.764;9.178;2022-07-19T08:07:32;3.03;;;2.77;;
33792;SDS011;20105;48.764;9.178;2022-07-19T08:09:57;6.60;;;2.30;;
33792;SDS011;20105;48.764;9.178;2022-07-19T08:12:24;4.73;;;2.00;;
33792;SDS011;20105;48.764;9.178;2022-07-19T08:14:50;2.13;;;1.93;;
33792;SDS011;20105;48.764;9.178;2022-07-19T08:17:15;2.80;;;1.83;;
33792;SDS011;20105;48.764;9.178;2022-07-19T08:19:41;2.30;;;2.10;;
33792;SDS011;20105;48.764;9.178;2022-07-19T08:24:39;2.07;;;1.87;;
33792;SDS011;20105;48.764;9.178;2022-07-19T08:27:04;2.67;;;2.00;;
33792;SDS011;20105;48.764;9.178;2022-07-19T08:29:30;3.50;;;1.77;;
33792;SDS011;20105;48.764;9.178;2022-07-19T08:31:56;1.63;;;1.47;;
33792;SDS011;20105;48.764;9.178;2022-07-19T08:34:23;2.10;;;1.90;;
33792;SDS011;20105;48.764;9.178;2022-07-19T08:36:49;3.80;;;1.67;;
33792;SDS011;20105;48.764;9.178;2022-07-19T08:39:15;2.30;;;2.10;;
33792;SDS011;20105;48.764;9.178;2022-07-19T08:41:42;2.47;;;1.33;;
33792;SDS011;20105;48.764;9.178;2022-07-19T08:44:09;5.10;;;1.80;;
33792;SDS011;20105;48.764;9.178;2022-07-19T08:46:36;17.20;;;2.00;;
33792;SDS011;20105;48.764;9.178;2022-07-19T08:49:02;3.27;;;2.53;;
33792;SDS011;20105;48.764;9.178;2022-07-19T08:51:28;2.50;;;2.10;;
33792;SDS011;20105;48.764;9.178;2022-07-19T08:53:54;2.57;;;2.40;;
33792;SDS011;20105;48.764;9.178;2022-07-19T08:56:21;3.47;;;2.53;;
33792;SDS011;20105;48.764;9.178;2022-07-19T08:59:06;2.93;;;2.13;;
33792;SDS011;20105;48.764;9.178;2022-07-19T09:01:31;1.83;;;1.73;;
33792;SDS011;20105;48.764;9.178;2022-07-19T09:06:37;7.37;;;2.07;;
33792;SDS011;20105;48.764;9.178;2022-07-19T09:09:03;2.00;;;1.90;;
33792;SDS011;20105;48.764;9.178;2022-07-19T09:11:33;4.03;;;1.80;;
33792;SDS011;20105;48.764;9.178;2022-07-19T09:14:09;2.30;;;1.70;;
33792;SDS011;20105;48.764;9.178;2022-07-19T09:19:37;3.70;;;1.90;;
33792;SDS011;20105;48.764;9.178;2022-07-19T09:22:07;1.90;;;1.67;;
33792;SDS011;20105;48.764;9.178;2022-07-19T09:24:35;2.30;;;1.70;;
33792;SDS011;20105;48.764;9.178;2022-07-19T09:27:04;2.30;;;2.20;;
33792;SDS011;20105;48.764;9.178;2022-07-19T09:29:31;5.13;;;2.20;;
33792;SDS011;20105;48.764;9.178;2022-07-19T09:32:03;2.60;;;2.20;;
33792;SDS011;20105;48.764;9.178;2022-07-19T09:37:22;3.47;;;2.07;;
33792;SDS011;20105;48.764;9.178;2022-07-19T09:40:02;2.20;;;1.60;;
33792;SDS011;20105;48.764;9.178;2022-07-19T09:42:35;2.60;;;2.40;;
33792;SDS011;20105;48.764;9.178;2022-07-19T09:45:05;2.80;;;2.47;;
33792;SDS011;20105;48.764;9.178;2022-07-19T09:47:35;2.60;;;1.90;;
33792;SDS011;20105;48.764;9.178;2022-07-19T09:50:03;2.27;;;2.10;;
33792;SDS011;20105;48.764;9.178;2022-07-19T09:52:32;3.00;;;2.30;;
33792;SDS011;20105;48.764;9.178;2022-07-19T09:54:59;2.40;;;2.20;;
33792;SDS011;20105;48.764;9.178;2022-07-19T09:57:27;2.50;;;2.30;;
33792;SDS011;20105;48.764;9.178;2022-07-19T09:59:57;1.90;;;1.80;;
33792;SDS011;20105;48.764;9.178;2022-07-19T10:02:23;2.33;;;2.13;;
33792;SDS011;20105;48.764;9.178;2022-07-19T10:04:50;4.57;;;2.43;;
33792;SDS011;20105;48.764;9.178;2022-07-19T10:07:16;3.90;;;2.47;;
33792;SDS011;20105;48.764;9.178;2022-07-19T10:09:45;2.40;;;2.30;;
33792;SDS011;20105;48.764;9.178;2022-07-19T10:12:11;3.70;;;2.07;;
33792;SDS011;20105;48.764;9.178;2022-07-19T10:14:37;2.23;;;2.03;;
33792;SDS011;20105;48.764;9.178;2022-07-19T10:17:14;2.47;;;2.27;;
33792;SDS011;20105;48.764;9.178;2022-07-19T10:19:49;2.27;;;2.10;;
33792;SDS011;20105;48.764;9.178;2022-07-19T10:22:17;2.90;;;2.23;;
33792;SDS011;20105;48.764;9.178;2022-07-19T10:32:30;2.90;;;2.70;;
33792;SDS011;20105;48.764;9.178;2022-07-19T10:37:42;2.73;;;2.53;;
33792;SDS011;20105;48.764;9.178;2022-07-19T10:40:10;3.03;;;2.40;;
33792;SDS011;20105;48.764;9.178;2022-07-19T10:42:35;2.40;;;2.20;;
33792;SDS011;20105;48.764;9.178;2022-07-19T10:50:08;2.60;;;2.20;;
33792;SDS011;20105;48.764;9.178;2022-07-19T10:52:36;5.40;;;2.40;;
33792;SDS011;20105;48.764;9.178;2022-07-19T10:57:49;4.97;;;2.63;;
33792;SDS011;20105;48.764;9.178;2022-07-19T11:00:18;3.40;;;2.73;;
33792;SDS011;20105;48.764;9.178;2022-07-19T11:05:52;2.47;;;1.83;;
33792;SDS011;20105;48.764;9.178;2022-07-19T11:08:32;3.40;;;2.50;;
33792;SDS011;20105;48.764;9.178;2022-07-19T11:11:03;2.70;;;2.20;;
33792;SDS011;20105;48.764;9.178;2022-07-19T11:13:39;3.33;;;2.47;;
33792;SDS011;20105;48.764;9.178;2022-07-19T11:16:08;2.40;;;2.27;;
33792;SDS011;20105;48.764;9.178;2022-07-19T11:18:34;2.60;;;2.27;;
33792;SDS011;20105;48.764;9.178;2022-07-19T11:21:01;3.30;;;2.63;;
33792;SDS011;20105;48.764;9.178;2022-07-19T11:23:29;2.90;;;2.30;;
33792;SDS011;20105;48.764;9.178;2022-07-19T11:26:13;4.23;;;2.53;;
33792;SDS011;20105;48.764;9.178;2022-07-19T11:28:43;3.87;;;2.07;;
33792;SDS011;20105;48.764;9.178;2022-07-19T11:33:43;3.00;;;2.23;;
33792;SDS011;20105;48.764;9.178;2022-07-19T11:36:11;2.60;;;2.40;;
33792;SDS011;20105;48.764;9.178;2022-07-19T11:41:08;2.77;;;2.57;;
33792;SDS011;20105;48.764;9.178;2022-07-19T11:43:36;6.80;;;2.80;;
33792;SDS011;20105;48.764;9.178;2022-07-19T11:46:02;4.30;;;3.40;;
33792;SDS011;20105;48.764;9.178;2022-07-19T11:48:28;2.43;;;2.30;;
33792;SDS011;20105;48.764;9.178;2022-07-19T11:51:06;3.30;;;2.33;;
33792;SDS011;20105;48.764;9.178;2022-07-19T11:53:35;3.47;;;2.70;;
33792;SDS011;20105;48.764;9.178;2022-07-19T11:56:05;3.17;;;2.87;;
33792;SDS011;20105;48.764;9.178;2022-07-19T11:58:40;2.83;;;2.63;;
33792;SDS011;20105;48.764;9.178;2022-07-19T12:01:08;3.10;;;2.60;;
33792;SDS011;20105;48.764;9.178;2022-07-19T12:03:33;2.73;;;2.53;;
33792;SDS011;20105;48.764;9.178;2022-07-19T12:06:01;2.90;;;2.30;;
33792;SDS011;20105;48.764;9.178;2022-07-19T12:08:35;5.63;;;2.90;;
33792;SDS011;20105;48.764;9.178;2022-07-19T12:11:14;2.87;;;2.27;;
33792;SDS011;20105;48.764;9.178;2022-07-19T12:13:41;3.03;;;2.10;;
33792;SDS011;20105;48.764;9.178;2022-07-19T12:16:07;4.40;;;2.70;;
33792;SDS011;20105;48.764;9.178;2022-07-19T12:18:41;3.63;;;3.33;;
33792;SDS011;20105;48.764;9.178;2022-07-19T12:24:16;3.30;;;1.93;;
33792;SDS011;20105;48.764;9.178;2022-07-19T12:29:24;3.27;;;2.40;;
33792;SDS011;20105;48.764;9.178;2022-07-19T12:34:26;5.83;;;3.17;;
33792;SDS011;20105;48.764;9.178;2022-07-19T12:36:53;3.80;;;2.47;;
33792;SDS011;20105;48.764;9.178;2022-07-19T12:39:25;4.40;;;2.70;;
33792;SDS011;20105;48.764;9.178;2022-07-19T12:41:55;2.63;;;2.37;;
33792;SDS011;20105;48.764;9.178;2022-07-19T12:44:22;3.57;;;2.57;;
33792;SDS011;20105;48.764;9.178;2022-07-19T12:46:47;4.37;;;3.57;;
33792;SDS011;20105;48.764;9.178;2022-07-19T12:49:13;6.50;;;3.90;;
33792;SDS011;20105;48.764;9.178;2022-07-19T12:51:38;4.53;;;2.40;;
33792;SDS011;20105;48.764;9.178;2022-07-19T12:54:08;3.20;;;2.60;;
33792;SDS011;20105;48.764;9.178;2022-07-19T12:56:35;3.67;;;2.70;;
33792;SDS011;20105;48.764;9.178;2022-07-19T12:59:00;3.20;;;3.00;;
33792;SDS011;20105;48.764;9.178;2022-07-19T13:01:52;3.40;;;2.47;;
33792;SDS011;20105;48.764;9.178;2022-07-19T13:04:18;5.60;;;2.80;;
33792;SDS011;20105;48.764;9.178;2022-07-19T13:06:43;4.97;;;3.10;;
33792;SDS011;20105;48.764;9.178;2022-07-19T13:09:09;3.40;;;3.07;;
33792;SDS011;20105;48.764;9.178;2022-07-19T13:11:35;2.63;;;2.43;;
33792;SDS011;20105;48.764;9.178;2022-07-19T13:14:01;3.43;;;3.10;;
33792;SDS011;20105;48.764;9.178;2022-07-19T13:16:28;4.03;;;3.27;;
33792;SDS011;20105;48.764;9.178;2022-07-19T13:18:55;6.00;;;3.10;;
33792;SDS011;20105;48.764;9.178;2022-07-19T13:21:20;5.03;;;2.53;;
33792;SDS011;20105;48.764;9.178;2022-07-19T13:23:47;5.40;;;2.83;;
33792;SDS011;20105;48.764;9.178;2022-07-19T13:26:12;9.23;;;3.37;;
33792;SDS011;20105;48.764;9.178;2022-07-19T13:28:38;3.27;;;3.00;;
33792;SDS011;20105;48.764;9.178;2022-07-19T13:31:05;3.37;;;2.30;;
33792;SDS011;20105;48.764;9.178;2022-07-19T13:33:30;2.80;;;2.60;;
33792;SDS011;20105;48.764;9.178;2022-07-19T13:35:56;4.77;;;3.20;;
33792;SDS011;20105;48.764;9.178;2022-07-19T13:38:21;3.83;;;3.00;;
33792;SDS011;20105;48.764;9.178;2022-07-19T13:40:47;2.73;;;2.50;;
33792;SDS011;20105;48.764;9.178;2022-07-19T13:43:15;4.87;;;3.00;;
33792;SDS011;20105;48.764;9.178;2022-07-19T13:45:40;6.33;;;2.20;;
33792;SDS011;20105;48.764;9.178;2022-07-19T13:48:06;3.13;;;2.83;;
33792;SDS011;20105;48.764;9.178;2022-07-19T13:50:32;4.37;;;3.00;;
33792;SDS011;20105;48.764;9.178;2022-07-19T13:52:58;3.37;;;2.33;;
33792;SDS011;20105;48.764;9.178;2022-07-19T13:55:24;2.23;;;2.03;;
33792;SDS011;20105;48.764;9.178;2022-07-19T13:57:50;3.07;;;2.43;;
33792;SDS011;20105;48.764;9.178;2022-07-19T14:00:16;2.80;;;2.50;;
33792;SDS011;20105;48.764;9.178;2022-07-19T14:02:42;2.83;;;2.63;;
33792;SDS011;20105;48.764;9.178;2022-07-19T14:05:09;4.77;;;2.50;;
33792;SDS011;20105;48.764;9.178;2022-07-19T14:07:34;2.70;;;2.50;;
33792;SDS011;20105;48.764;9.178;2022-07-19T14:10:01;5.07;;;2.60;;
33792;SDS011;20105;48.764;9.178;2022-07-19T14:12:27;3.97;;;2.70;;
33792;SDS011;20105;48.764;9.178;2022-07-19T14:14:53;5.00;;;2.77;;
33792;SDS011;20105;48.764;9.178;2022-07-19T14:17:19;2.93;;;2.57;;
33792;SDS011;20105;48.764;9.178;2022-07-19T14:19:44;5.43;;;3.00;;
33792;SDS011;20105;48.764;9.178;2022-07-19T14:22:10;3.10;;;2.20;;
33792;SDS011;20105;48.764;9.178;2022-07-19T14:24:36;8.03;;;2.47;;
33792;SDS011;20105;48.764;9.178;2022-07-19T14:27:02;3.43;;;2.60;;
33792;SDS011;20105;48.764;9.178;2022-07-19T14:29:28;2.80;;;2.60;;
33792;SDS011;20105;48.764;9.178;2022-07-19T14:31:55;3.27;;;3.00;;
33792;SDS011;20105;48.764;9.178;2022-07-19T14:34:21;3.33;;;2.60;;
33792;SDS011;20105;48.764;9.178;2022-07-19T14:36:46;4.00;;;2.73;;
33792;SDS011;20105;48.764;9.178;2022-07-19T14:39:12;2.80;;;2.60;;
33792;SDS011;20105;48.764;9.178;2022-07-19T14:41:38;4.63;;;3.03;;
33792;SDS011;20105;48.764;9.178;2022-07-19T14:44:04;3.70;;;3.40;;
33792;SDS011;20105;48.764;9.178;2022-07-19T14:46:30;3.73;;;2.80;;
33792;SDS011;20105;48.764;9.178;2022-07-19T14:48:56;2.77;;;2.33;;
33792;SDS011;20105;48.764;9.178;2022-07-19T14:51:21;2.63;;;2.43;;
33792;SDS011;20105;48.764;9.178;2022-07-19T14:53:47;5.10;;;2.53;;
33792;SDS011;20105;48.764;9.178;2022-07-19T14:56:13;6.97;;;2.90;;
33792;SDS011;20105;48.764;9.178;2022-07-19T14:58:38;3.70;;;2.60;;
33792;SDS011;20105;48.764;9.178;2022-07-19T15:01:06;5.97;;;2.73;;
33792;SDS011;20105;48.764;9.178;2022-07-19T15:03:35;4.10;;;2.37;;
33792;SDS011;20105;48.764;9.178;2022-07-19T15:06:01;4.00;;;2.50;;
33792;SDS011;20105;48.764;9.178;2022-07-19T15:08:27;3.50;;;2.97;;
33792;SDS011;20105;48.764;9.178;2022-07-19T15:10:52;6.00;;;3.30;;
33792;SDS011;20105;48.764;9.178;2022-07-19T15:13:18;4.20;;;2.83;;
33792;SDS011;20105;48.764;9.178;2022-07-19T15:15:45;2.37;;;2.17;;
33792;SDS011;20105;48.764;9.178;2022-07-19T15:18:10;5.33;;;2.70;;
33792;SDS011;20105;48.764;9.178;2022-07-19T15:20:37;3.27;;;2.20;;
33792;SDS011;20105;48.764;9.178;2022-07-19T15:23:03;4.10;;;2.67;;
33792;SDS011;20105;48.764;9.178;2022-07-19T15:25:29;3.10;;;2.80;;
33792;SDS011;20105;48.764;9.178;2022-07-19T15:27:54;12.93;;;4.60;;
33792;SDS011;20105;48.764;9.178;2022-07-19T15:30:23;3.57;;;3.23;;